Time;durP1;ratioP1;P1;durP2;ratioP2;P2;SDS_P1;SDS_P2;PMS_P1;PMS_P2;Temp;Humidity;BMP_temperature;BMP_pressure;BME280_temperature;BME280_humidity;BME280_pressure;Samples;Min_cycle;Max_cycle;Signal;HPM_P1;HPM_P2
2022/07/01 00:00:36;;;;;;;;;;;;;;;;;;5038023;28;20252;-26
2022/07/01 00:03:03;;;;;;;;;;;;;;;;;;5037805;28;20285;-26
2022/07/01 00:05:29;;;;;;;;;;;;;;;;;;5038276;28;20256;-25
2022/07/01 00:07:55;;;;;;;;;;;;;;;;;;5037898;28;20313;-25
2022/07/01 00:10:21;;;;;;;;;;;;;;;;;;5038125;28;19940;-25
2022/07/01 00:12:47;;;;;;;;;;;;;;;;;;5037988;28;19967;-26
2022/07/01 00:15:13;;;;;;;;;;;;;;;;;;5037829;28;19913;-26
2022/07/01 00:17:39;;;;;;;;;;;;;;;;;;5037779;28;19959;-25
2022/07/01 00:20:06;;;;;;;;;;;;;;;;;;5037923;28;19910;-25
2022/07/01 00:22:33;;;;;;;;;;;;;;;;;;5037800;28;20367;-25
2022/07/01 00:24:59;;;;;;;;;;;;;;;;;;5037843;28;20309;-25
2022/07/01 00:27:25;;;;;;;;;;;;;;;;;;5036860;28;20020;-26
2022/07/01 00:29:51;;;;;;;;;;;;;;;;;;5037538;28;19948;-25
2022/07/01 00:32:17;;;;;;;;;;;;;;;;;;5037267;28;20237;-26
2022/07/01 00:34:43;;;;;;;;;;;;;;;;;;5037337;28;19914;-25
2022/07/01 00:37:09;;;;;;;;;;;;;;;;;;5037895;28;19910;-25
2022/07/01 00:39:36;;;;;;;;;;;;;;;;;;5037264;28;20368;-25
2022/07/01 00:42:03;;;;;;;;;;;;;;;;;;5037783;28;19909;-26
2022/07/01 00:44:29;;;;;;;;;;;;;;;;;;5037205;28;19913;-26
2022/07/01 00:46:55;;;;;;;;;;;;;;;;;;5037563;28;19920;-26
2022/07/01 00:49:21;;;;;;;;;;;;;;;;;;5037463;28;19996;-26
2022/07/01 00:51:47;;;;;;;;;;;;;;;;;;5036974;28;19917;-25
2022/07/01 00:54:13;;;;;;;;;;;;;;;;;;5037094;28;19927;-25
2022/07/01 00:56:39;;;;;;;;;;;;;;;;;;5036994;28;19906;-25
2022/07/01 00:59:05;;;;;;;;;;;;;;;;;;5037563;28;19924;-25
2022/07/01 01:01:31;;;;;;;;;;;;;;;;;;5036929;28;19913;-26
2022/07/01 01:03:57;;;;;;;;;;;;;;;;;;5036725;28;20409;-26
2022/07/01 01:06:23;;;;;;;;;;;;;;;;;;5037075;28;19920;-25
2022/07/01 01:08:49;;;;;;;;;;;;;;;;;;5037013;28;19917;-25
2022/07/01 01:11:15;;;;;;;;;;;;;;;;;;5037200;28;19944;-25
2022/07/01 01:13:41;;;;;;;;;;;;;;;;;;5036577;28;19913;-25
2022/07/01 01:16:07;;;;;;;;;;;;;;;;;;5036613;28;19913;-26
2022/07/01 01:18:33;;;;;;;;;;;;;;;;;;5036669;28;19913;-25
2022/07/01 01:20:59;;;;;;;;;;;;;;;;;;5036505;28;19926;-25
2022/07/01 01:23:25;;;;;;;;;;;;;;;;;;5036445;28;19940;-25
2022/07/01 01:25:51;;;;;;;;;;;;;;;;;;5035420;28;20267;-26
2022/07/01 01:28:17;;;;;;;;;;;;;;;;;;5036420;28;19963;-25
2022/07/01 01:30:43;;;;;;;;;;;;;;;;;;5036596;28;19913;-26
2022/07/01 01:33:11;;;;;;;;;;;;;;;;;;5036737;28;19929;-25
2022/07/01 01:35:37;;;;;;;;;;;;;;;;;;5036594;28;19909;-25
2022/07/01 01:38:03;;;;;;;;;;;;;;;;;;5035438;28;19913;-26
2022/07/01 01:40:29;;;;;;;;;;;;;;;;;;5036124;28;19924;-25
2022/07/01 01:42:55;;;;;;;;;;;;;;;;;;5036036;28;19909;-25
2022/07/01 01:45:21;;;;;;;;;;;;;;;;;;5036326;28;19917;-25
2022/07/01 01:47:47;;;;;;;;;;;;;;;;;;5036045;28;19920;-25
2022/07/01 01:50:13;;;;;;;;;;;;;;;;;;5035929;28;19914;-26
2022/07/01 01:52:42;;;;;;;;;;;;;;;;;;5036060;28;20367;-25
2022/07/01 01:55:08;;;;;;;;;;;;;;;;;;5035929;28;19913;-25
2022/07/01 01:57:34;;;;;;;;;;;;;;;;;;5035879;28;20316;-25
2022/07/01 02:00:01;;;;;;;;;;;;;;;;;;5035776;28;19924;-26
2022/07/01 02:02:27;;;;;;;;;;;;;;;;;;5035526;28;19921;-26
2022/07/01 02:04:53;;;;;;;;;;;;;;;;;;5035628;28;19913;-25
2022/07/01 02:07:19;;;;;;;;;;;;;;;;;;5035628;28;19991;-25
2022/07/01 02:09:45;;;;;;;;;;;;;;;;;;5035917;28;19909;-28
2022/07/01 02:12:11;;;;;;;;;;;;;;;;;;5035456;28;19974;-26
2022/07/01 02:14:37;;;;;;;;;;;;;;;;;;5035567;28;19917;-26
2022/07/01 02:17:03;;;;;;;;;;;;;;;;;;5036076;28;19929;-25
2022/07/01 02:19:29;;;;;;;;;;;;;;;;;;5035487;28;20256;-25
2022/07/01 02:21:54;;;;;;;;;;;;;;;;;;5035682;28;19913;-26
2022/07/01 02:24:21;;;;;;;;;;;;;;;;;;5035672;28;19979;-26
2022/07/01 02:26:47;;;;;;;;;;;;;;;;;;5035638;28;19945;-25
2022/07/01 02:29:13;;;;;;;;;;;;;;;;;;5035383;28;19909;-26
2022/07/01 02:31:39;;;;;;;;;;;;;;;;;;5035254;28;19917;-25
2022/07/01 02:34:05;;;;;;;;;;;;;;;;;;5035222;28;20245;-25
2022/07/01 02:36:31;;;;;;;;;;;;;;;;;;5036024;28;19921;-26
2022/07/01 02:38:57;;;;;;;;;;;;;;;;;;5035227;28;19909;-26
2022/07/01 02:41:23;;;;;;;;;;;;;;;;;;5035433;28;19949;-26
2022/07/01 02:43:49;;;;;;;;;;;;;;;;;;5035091;28;19913;-26
2022/07/01 02:46:15;;;;;;;;;;;;;;;;;;5035237;28;19909;-26
2022/07/01 02:48:41;;;;;;;;;;;;;;;;;;5034830;28;19921;-25
2022/07/01 02:51:07;;;;;;;;;;;;;;;;;;5034945;28;20451;-26
2022/07/01 02:53:33;;;;;;;;;;;;;;;;;;5034976;28;20252;-26
2022/07/01 02:55:59;;;;;;;;;;;;;;;;;;5035237;28;19945;-26
2022/07/01 02:58:25;;;;;;;;;;;;;;;;;;5034959;28;20378;-25
2022/07/01 03:00:52;;;;;;;;;;;;;;;;;;5034941;28;19920;-26
2022/07/01 03:03:19;;;;;;;;;;;;;;;;;;5034660;28;19917;-25
2022/07/01 03:05:46;;;;;;;;;;;;;;;;;;5035205;28;19919;-26
2022/07/01 03:08:12;;;;;;;;;;;;;;;;;;5035241;28;19913;-26
2022/07/01 03:10:38;;;;;;;;;;;;;;;;;;5035154;28;19913;-26
2022/07/01 03:13:04;;;;;;;;;;;;;;;;;;5035015;28;20278;-25
2022/07/01 03:15:30;;;;;;;;;;;;;;;;;;5034871;28;19951;-25
2022/07/01 03:17:56;;;;;;;;;;;;;;;;;;5035069;28;19955;-26
2022/07/01 03:20:22;;;;;;;;;;;;;;;;;;5034756;28;20339;-26
2022/07/01 03:22:49;;;;;;;;;;;;;;;;;;5034678;28;19909;-26
2022/07/01 03:25:15;;;;;;;;;;;;;;;;;;5034333;28;19913;-26
2022/07/01 03:27:44;;;;;;;;;;;;;;;;;;5035248;28;20366;-25
2022/07/01 03:30:10;;;;;;;;;;;;;;;;;;5033668;28;20327;-25
2022/07/01 03:32:36;;;;;;;;;;;;;;;;;;5034761;28;19921;-25
2022/07/01 03:35:35;;;;;;;;;;;;;;;;;;5035011;28;20299;-25
2022/07/01 03:37:48;;;;;;;;;;;;;;;;;;5034478;28;19940;-25
2022/07/01 03:40:14;;;;;;;;;;;;;;;;;;5035178;28;19913;-25
2022/07/01 03:42:40;;;;;;;;;;;;;;;;;;5035025;28;19944;-25
2022/07/01 03:45:06;;;;;;;;;;;;;;;;;;5034467;28;19924;-26
2022/07/01 03:47:32;;;;;;;;;;;;;;;;;;5034561;28;19912;-26
2022/07/01 03:49:58;;;;;;;;;;;;;;;;;;5034432;28;19909;-26
2022/07/01 03:52:24;;;;;;;;;;;;;;;;;;5034547;28;20345;-25
2022/07/01 03:54:50;;;;;;;;;;;;;;;;;;5033517;28;19924;-25
2022/07/01 03:57:16;;;;;;;;;;;;;;;;;;5034324;28;20360;-26
2022/07/01 03:59:43;;;;;;;;;;;;;;;;;;5034326;28;19939;-25
2022/07/01 04:02:09;;;;;;;;;;;;;;;;;;5035002;28;20305;-26
2022/07/01 04:04:35;;;;;;;;;;;;;;;;;;5038192;28;19913;-26
2022/07/01 04:07:01;;;;;;;;;;;;;;;;;;5036949;28;19928;-25
2022/07/01 04:09:27;;;;;;;;;;;;;;;;;;5037681;28;19920;-26
2022/07/01 04:11:53;;;;;;;;;;;;;;;;;;5037907;28;19921;-25
2022/07/01 04:14:19;;;;;;;;;;;;;;;;;;5037665;28;19920;-25
2022/07/01 04:16:45;;;;;;;;;;;;;;;;;;5037861;28;19905;-25
2022/07/01 04:19:12;;;;;;;;;;;;;;;;;;5036570;28;19914;-25
2022/07/01 04:24:24;;;;;;;;;;;;;;;;;;5037601;28;19924;-26
2022/07/01 04:26:50;;;;;;;;;;;;;;;;;;5037755;28;20263;-26
2022/07/01 04:29:15;;;;;;;;;;;;;;;;;;5037432;28;20298;-26
2022/07/01 04:31:41;;;;;;;;;;;;;;;;;;5037700;28;20011;-26
2022/07/01 04:34:08;;;;;;;;;;;;;;;;;;5037877;28;19994;-25
2022/07/01 04:36:34;;;;;;;;;;;;;;;;;;5037841;28;20000;-25
2022/07/01 04:39:00;;;;;;;;;;;;;;;;;;5037528;28;20311;-26
2022/07/01 04:44:10;;;;;;;;;;;;;;;;;;5037358;28;20417;-26
2022/07/01 04:46:36;;;;;;;;;;;;;;;;;;5037296;28;19909;-26
2022/07/01 04:49:02;;;;;;;;;;;;;;;;;;5036135;28;20354;-25
2022/07/01 04:51:28;;;;;;;;;;;;;;;;;;5037086;28;19975;-25
2022/07/01 04:53:54;;;;;;;;;;;;;;;;;;5037259;28;20295;-26
2022/07/01 04:56:20;;;;;;;;;;;;;;;;;;5037051;28;19913;-26
2022/07/01 04:58:46;;;;;;;;;;;;;;;;;;5037511;28;20007;-25
2022/07/01 05:01:14;;;;;;;;;;;;;;;;;;5036761;28;19909;-25
2022/07/01 05:03:40;;;;;;;;;;;;;;;;;;5036461;28;20312;-26
2022/07/01 05:06:06;;;;;;;;;;;;;;;;;;5037398;28;19909;-26
2022/07/01 05:08:32;;;;;;;;;;;;;;;;;;5037101;28;19920;-26
2022/07/01 05:10:58;;;;;;;;;;;;;;;;;;5036980;28;19929;-26
2022/07/01 05:13:24;;;;;;;;;;;;;;;;;;5036634;28;19932;-25
2022/07/01 05:15:50;;;;;;;;;;;;;;;;;;5036596;28;19913;-28
2022/07/01 05:23:45;;;;;;;;;;;;;;;;;;5036635;28;19915;-26
2022/07/01 05:26:16;;;;;;;;;;;;;;;;;;5036273;28;19917;-25
2022/07/01 05:28:42;;;;;;;;;;;;;;;;;;5036622;28;19909;-25
2022/07/01 05:31:08;;;;;;;;;;;;;;;;;;5035246;28;19913;-25
2022/07/01 05:33:34;;;;;;;;;;;;;;;;;;5036222;28;20407;-26
2022/07/01 05:36:01;;;;;;;;;;;;;;;;;;5036301;28;19963;-25
2022/07/01 05:38:27;;;;;;;;;;;;;;;;;;5036804;28;19913;-25
2022/07/01 05:40:53;;;;;;;;;;;;;;;;;;5036163;28;19924;-26
2022/07/01 05:43:19;;;;;;;;;;;;;;;;;;5036032;28;19913;-25
2022/07/01 05:45:45;;;;;;;;;;;;;;;;;;5036808;28;19909;-25
2022/07/01 05:48:11;;;;;;;;;;;;;;;;;;5036077;28;19967;-25
2022/07/01 05:50:37;;;;;;;;;;;;;;;;;;5035860;28;19920;-25
2022/07/01 05:53:03;;;;;;;;;;;;;;;;;;5035806;28;19917;-25
2022/07/01 05:55:29;;;;;;;;;;;;;;;;;;5034987;28;19912;-25
2022/07/01 05:57:55;;;;;;;;;;;;;;;;;;5036414;28;20004;-26
2022/07/01 06:00:21;;;;;;;;;;;;;;;;;;5036434;28;19913;-25
2022/07/01 06:02:47;;;;;;;;;;;;;;;;;;5035510;28;19917;-25
2022/07/01 06:05:13;;;;;;;;;;;;;;;;;;5035774;28;19916;-25
2022/07/01 06:07:40;;;;;;;;;;;;;;;;;;5035712;28;19913;-25
2022/07/01 06:10:06;;;;;;;;;;;;;;;;;;5035619;28;19913;-25
2022/07/01 06:12:32;;;;;;;;;;;;;;;;;;5035414;28;19932;-25
2022/07/01 06:14:58;;;;;;;;;;;;;;;;;;5035567;28;20408;-26
2022/07/01 06:17:24;;;;;;;;;;;;;;;;;;5036124;28;20012;-25
2022/07/01 06:19:50;;;;;;;;;;;;;;;;;;5035475;28;20336;-25
2022/07/01 06:22:18;;;;;;;;;;;;;;;;;;5035908;28;20000;-25
2022/07/01 06:24:44;;;;;;;;;;;;;;;;;;5035000;28;19913;-25
2022/07/01 06:27:10;;;;;;;;;;;;;;;;;;5035378;28;20010;-26
2022/07/01 06:29:36;;;;;;;;;;;;;;;;;;5034391;28;19917;-25
2022/07/01 06:32:02;;;;;;;;;;;;;;;;;;5035163;28;19921;-26
2022/07/01 06:34:28;;;;;;;;;;;;;;;;;;5035858;28;19913;-26
2022/07/01 06:36:55;;;;;;;;;;;;;;;;;;5035146;28;20228;-25
2022/07/01 06:39:21;;;;;;;;;;;;;;;;;;5035314;28;19920;-25
2022/07/01 06:41:47;;;;;;;;;;;;;;;;;;5033834;28;19939;-26
2022/07/01 06:44:13;;;;;;;;;;;;;;;;;;5034743;28;19913;-27
2022/07/01 06:46:39;;;;;;;;;;;;;;;;;;5034776;28;19983;-25
2022/07/01 06:49:05;;;;;;;;;;;;;;;;;;5035054;28;19928;-26
2022/07/01 06:51:32;;;;;;;;;;;;;;;;;;5034949;28;20229;-26
2022/07/01 06:53:58;;;;;;;;;;;;;;;;;;5034669;28;19928;-25
2022/07/01 06:56:24;;;;;;;;;;;;;;;;;;5034585;28;19909;-26
2022/07/01 06:58:50;;;;;;;;;;;;;;;;;;5035040;28;19914;-26
2022/07/01 07:01:16;;;;;;;;;;;;;;;;;;5035059;28;20236;-25
2022/07/01 07:03:42;;;;;;;;;;;;;;;;;;5034333;28;19925;-25
2022/07/01 07:06:08;;;;;;;;;;;;;;;;;;5034827;28;20371;-25
2022/07/01 07:08:34;;;;;;;;;;;;;;;;;;5034772;28;19920;-25
2022/07/01 07:11:00;;;;;;;;;;;;;;;;;;5034377;28;19912;-25
2022/07/01 07:13:26;;;;;;;;;;;;;;;;;;5034525;28;19917;-25
2022/07/01 07:15:52;;;;;;;;;;;;;;;;;;5034493;28;19913;-25
2022/07/01 07:18:18;;;;;;;;;;;;;;;;;;5033416;28;19921;-25
2022/07/01 07:20:44;;;;;;;;;;;;;;;;;;5034679;28;20288;-25
2022/07/01 07:23:10;;;;;;;;;;;;;;;;;;5034423;28;19959;-25
2022/07/01 07:25:36;;;;;;;;;;;;;;;;;;5035008;28;19913;-25
2022/07/01 07:28:03;;;;;;;;;;;;;;;;;;5034408;28;19962;-25
2022/07/01 07:30:29;;;;;;;;;;;;;;;;;;5033265;28;20233;-26
2022/07/01 07:32:55;;;;;;;;;;;;;;;;;;5034168;28;19996;-25
2022/07/01 07:35:21;;;;;;;;;;;;;;;;;;5034748;28;19917;-25
2022/07/01 07:37:47;;;;;;;;;;;;;;;;;;5037551;28;19967;-25
2022/07/01 07:40:17;;;;;;;;;;;;;;;;;;5038441;28;19924;-26
2022/07/01 07:42:43;;;;;;;;;;;;;;;;;;5037927;28;19916;-25
2022/07/01 07:45:11;;;;;;;;;;;;;;;;;;5037910;28;19957;-25
2022/07/01 07:47:37;;;;;;;;;;;;;;;;;;5037739;28;19917;-25
2022/07/01 07:50:05;;;;;;;;;;;;;;;;;;5036836;28;20031;-25
2022/07/01 07:52:31;;;;;;;;;;;;;;;;;;5037995;28;20336;-25
2022/07/01 07:54:57;;;;;;;;;;;;;;;;;;5038367;28;19916;-25
2022/07/01 07:57:23;;;;;;;;;;;;;;;;;;5037942;28;19966;-26
2022/07/01 07:59:49;;;;;;;;;;;;;;;;;;5037998;28;19913;-27
2022/07/01 08:02:16;;;;;;;;;;;;;;;;;;5037411;28;19984;-25
2022/07/01 08:04:42;;;;;;;;;;;;;;;;;;5038284;28;19960;-24
2022/07/01 08:07:08;;;;;;;;;;;;;;;;;;5037572;28;19913;-25
2022/07/01 08:09:34;;;;;;;;;;;;;;;;;;5036684;28;19909;-25
2022/07/01 08:12:00;;;;;;;;;;;;;;;;;;5037710;28;20323;-25
2022/07/01 08:14:26;;;;;;;;;;;;;;;;;;5037424;28;19921;-25
2022/07/01 08:16:52;;;;;;;;;;;;;;;;;;5036468;28;20378;-25
2022/07/01 08:19:18;;;;;;;;;;;;;;;;;;5037332;28;19913;-25
2022/07/01 08:21:45;;;;;;;;;;;;;;;;;;5038077;28;19905;-25
2022/07/01 08:24:11;;;;;;;;;;;;;;;;;;5037273;28;20002;-25
2022/07/01 08:26:37;;;;;;;;;;;;;;;;;;5037190;28;19991;-25
2022/07/01 08:29:03;;;;;;;;;;;;;;;;;;5037652;28;19913;-25
2022/07/01 08:31:29;;;;;;;;;;;;;;;;;;5037207;28;20302;-25
2022/07/01 08:33:55;;;;;;;;;;;;;;;;;;5037357;28;20240;-25
2022/07/01 08:36:21;;;;;;;;;;;;;;;;;;5036989;28;19920;-24
2022/07/01 08:38:49;;;;;;;;;;;;;;;;;;5036072;28;19913;-26
2022/07/01 08:41:15;;;;;;;;;;;;;;;;;;5036118;28;19909;-23
2022/07/01 08:43:41;;;;;;;;;;;;;;;;;;5037494;28;19928;-24
2022/07/01 08:46:07;;;;;;;;;;;;;;;;;;5037075;28;19913;-24
2022/07/01 08:48:33;;;;;;;;;;;;;;;;;;5036616;28;19916;-24
2022/07/01 08:51:03;;;;;;;;;;;;;;;;;;5037054;28;19913;-25
2022/07/01 08:53:29;;;;;;;;;;;;;;;;;;5036602;28;19917;-25
2022/07/01 08:58:40;;;;;;;;;;;;;;;;;;5036775;28;19924;-25
2022/07/01 09:01:06;;;;;;;;;;;;;;;;;;5036897;28;19971;-25
2022/07/01 09:03:32;;;;;;;;;;;;;;;;;;5036193;28;19917;-25
2022/07/01 09:05:58;;;;;;;;;;;;;;;;;;5036468;28;19915;-25
2022/07/01 09:08:24;;;;;;;;;;;;;;;;;;5036430;28;19925;-25
2022/07/01 09:10:50;;;;;;;;;;;;;;;;;;5036314;28;20264;-24
2022/07/01 09:13:16;;;;;;;;;;;;;;;;;;5036053;28;20213;-25
2022/07/01 09:15:42;;;;;;;;;;;;;;;;;;5036254;28;20409;-25
2022/07/01 09:18:08;;;;;;;;;;;;;;;;;;5036497;28;20047;-25
2022/07/01 09:20:34;;;;;;;;;;;;;;;;;;5036405;28;19913;-25
2022/07/01 09:23:00;;;;;;;;;;;;;;;;;;5035986;28;19913;-24
2022/07/01 09:25:27;;;;;;;;;;;;;;;;;;5036021;28;19913;-24
2022/07/01 09:27:54;;;;;;;;;;;;;;;;;;5035953;28;19913;-24
2022/07/01 09:30:20;;;;;;;;;;;;;;;;;;5036315;28;19917;-24
2022/07/01 09:32:46;;;;;;;;;;;;;;;;;;5034839;28;19971;-25
2022/07/01 09:35:12;;;;;;;;;;;;;;;;;;5036400;28;20261;-24
2022/07/01 09:37:38;;;;;;;;;;;;;;;;;;5036057;28;20244;-24
2022/07/01 09:40:06;;;;;;;;;;;;;;;;;;5035682;28;19917;-25
2022/07/01 09:42:33;;;;;;;;;;;;;;;;;;5035626;28;19920;-24
2022/07/01 09:44:59;;;;;;;;;;;;;;;;;;5036201;28;20004;-24
2022/07/01 09:47:25;;;;;;;;;;;;;;;;;;5035594;28;20345;-24
2022/07/01 09:49:51;;;;;;;;;;;;;;;;;;5036001;28;20228;-24
2022/07/01 09:52:17;;;;;;;;;;;;;;;;;;5035899;28;19917;-24
2022/07/01 09:54:47;;;;;;;;;;;;;;;;;;5034805;28;20197;-24
2022/07/01 09:57:13;;;;;;;;;;;;;;;;;;5035453;28;19910;-24
2022/07/01 09:59:39;;;;;;;;;;;;;;;;;;5034441;28;19920;-24
2022/07/01 10:02:05;;;;;;;;;;;;;;;;;;5035186;28;19942;-25
2022/07/01 10:04:31;;;;;;;;;;;;;;;;;;5035600;28;19917;-24
2022/07/01 10:06:57;;;;;;;;;;;;;;;;;;5035354;28;19951;-31
2022/07/01 10:09:23;;;;;;;;;;;;;;;;;;5035285;28;19955;-25
2022/07/01 10:11:49;;;;;;;;;;;;;;;;;;5035160;28;20332;-24
2022/07/01 10:14:15;;;;;;;;;;;;;;;;;;5035814;28;19967;-24
2022/07/01 10:16:41;;;;;;;;;;;;;;;;;;5035236;28;19913;-22
2022/07/01 10:19:07;;;;;;;;;;;;;;;;;;5035210;28;20415;-21
2022/07/01 10:21:33;;;;;;;;;;;;;;;;;;5035095;28;19905;-21
2022/07/01 10:23:59;;;;;;;;;;;;;;;;;;5035070;28;19920;-22
2022/07/01 10:26:25;;;;;;;;;;;;;;;;;;5035541;28;19906;-22
2022/07/01 10:28:53;;;;;;;;;;;;;;;;;;5035236;28;19921;-22
2022/07/01 10:31:19;;;;;;;;;;;;;;;;;;5034906;28;20255;-21
2022/07/01 10:33:45;;;;;;;;;;;;;;;;;;5034901;28;19963;-21
2022/07/01 10:36:11;;;;;;;;;;;;;;;;;;5034832;28;20320;-23
2022/07/01 10:38:37;;;;;;;;;;;;;;;;;;5034921;28;19921;-21
2022/07/01 10:41:12;;;;;;;;;;;;;;;;;;5034827;28;19959;-22
2022/07/01 10:43:41;;;;;;;;;;;;;;;;;;5034900;28;20256;-21
2022/07/01 10:46:07;;;;;;;;;;;;;;;;;;5035088;28;19938;-21
2022/07/01 10:48:33;;;;;;;;;;;;;;;;;;5034814;28;19924;-21
2022/07/01 10:50:59;;;;;;;;;;;;;;;;;;5034647;28;19909;-21
2022/07/01 10:53:27;;;;;;;;;;;;;;;;;;5033760;28;19920;-21
2022/07/01 10:55:53;;;;;;;;;;;;;;;;;;5035148;28;19921;-22
2022/07/01 10:58:20;;;;;;;;;;;;;;;;;;5034602;28;20351;-21
2022/07/01 11:00:46;;;;;;;;;;;;;;;;;;5034657;28;19992;-21
2022/07/01 11:03:12;;;;;;;;;;;;;;;;;;5034337;28;20371;-21
2022/07/01 11:05:38;;;;;;;;;;;;;;;;;;5034377;28;19913;-21
2022/07/01 11:08:04;;;;;;;;;;;;;;;;;;5034642;28;20000;-21
2022/07/01 11:10:30;;;;;;;;;;;;;;;;;;5035664;28;19964;-22
2022/07/01 11:12:56;;;;;;;;;;;;;;;;;;5038307;28;19953;-21
2022/07/01 11:15:22;;;;;;;;;;;;;;;;;;5038351;28;19967;-22
2022/07/01 11:17:48;;;;;;;;;;;;;;;;;;5038299;28;19920;-22
2022/07/01 11:20:14;;;;;;;;;;;;;;;;;;5038331;28;19913;-22
2022/07/01 11:22:40;;;;;;;;;;;;;;;;;;5038812;28;19917;-22
2022/07/01 11:25:06;;;;;;;;;;;;;;;;;;5038183;28;19914;-21
2022/07/01 11:27:32;;;;;;;;;;;;;;;;;;5038489;28;19909;-21
2022/07/01 11:29:58;;;;;;;;;;;;;;;;;;5039107;28;19924;-21
2022/07/01 11:32:24;;;;;;;;;;;;;;;;;;5038753;28;19920;-22
2022/07/01 11:34:50;;;;;;;;;;;;;;;;;;5038529;28;20263;-22
2022/07/01 11:40:01;;;;;;;;;;;;;;;;;;5038505;28;19920;-22
2022/07/01 11:42:27;;;;;;;;;;;;;;;;;;5038780;28;19913;-21
2022/07/01 11:44:53;;;;;;;;;;;;;;;;;;5037295;28;19920;-21
2022/07/01 11:47:19;;;;;;;;;;;;;;;;;;5038539;28;19922;-21
2022/07/01 11:49:45;;;;;;;;;;;;;;;;;;5038741;28;20256;-21
2022/07/01 11:52:11;;;;;;;;;;;;;;;;;;5038089;28;19996;-21
2022/07/01 11:54:37;;;;;;;;;;;;;;;;;;5038150;28;20321;-22
2022/07/01 11:57:03;;;;;;;;;;;;;;;;;;5038114;28;19921;-22
2022/07/01 11:59:29;;;;;;;;;;;;;;;;;;5038176;28;19913;-22
2022/07/01 12:01:55;;;;;;;;;;;;;;;;;;5037980;28;19910;-22
2022/07/01 12:04:22;;;;;;;;;;;;;;;;;;5037960;28;19928;-21
2022/07/01 12:06:48;;;;;;;;;;;;;;;;;;5037939;28;19913;-24
2022/07/01 12:09:14;;;;;;;;;;;;;;;;;;5037900;28;19913;-22
2022/07/01 12:11:40;;;;;;;;;;;;;;;;;;5037748;28;19925;-22
2022/07/01 12:14:06;;;;;;;;;;;;;;;;;;5037717;28;19936;-23
2022/07/01 12:16:32;;;;;;;;;;;;;;;;;;5037947;28;20252;-22
2022/07/01 12:18:58;;;;;;;;;;;;;;;;;;5038194;28;19992;-22
2022/07/01 12:21:24;;;;;;;;;;;;;;;;;;5037211;28;19944;-23
2022/07/01 12:23:50;;;;;;;;;;;;;;;;;;5037002;28;19909;-23
2022/07/01 12:26:17;;;;;;;;;;;;;;;;;;5037514;28;19975;-21
2022/07/01 12:28:43;;;;;;;;;;;;;;;;;;5037397;28;20347;-22
2022/07/01 12:31:09;;;;;;;;;;;;;;;;;;5037452;28;20008;-23
2022/07/01 12:33:35;;;;;;;;;;;;;;;;;;5036230;28;19917;-22
2022/07/01 12:36:01;;;;;;;;;;;;;;;;;;5037450;28;19909;-22
2022/07/01 12:38:27;;;;;;;;;;;;;;;;;;5037847;28;19971;-22
2022/07/01 12:40:53;;;;;;;;;;;;;;;;;;5037240;28;19948;-22
2022/07/01 12:43:19;;;;;;;;;;;;;;;;;;5037097;28;19917;-22
2022/07/01 12:45:45;;;;;;;;;;;;;;;;;;5037118;28;20367;-24
2022/07/01 12:48:11;;;;;;;;;;;;;;;;;;5035876;28;20010;-21
2022/07/01 12:50:37;;;;;;;;;;;;;;;;;;5036866;28;20414;-22
2022/07/01 12:53:03;;;;;;;;;;;;;;;;;;5036764;28;20008;-23
2022/07/01 12:55:29;;;;;;;;;;;;;;;;;;5037134;28;19945;-22
2022/07/01 12:57:55;;;;;;;;;;;;;;;;;;5037338;28;20307;-22
2022/07/01 13:00:21;;;;;;;;;;;;;;;;;;5037171;28;19936;-21
2022/07/01 13:02:47;;;;;;;;;;;;;;;;;;5036643;28;20275;-22
2022/07/01 13:05:13;;;;;;;;;;;;;;;;;;5037217;28;19992;-22
2022/07/01 13:07:39;;;;;;;;;;;;;;;;;;5036702;28;19924;-23
2022/07/01 13:10:05;;;;;;;;;;;;;;;;;;5036964;28;19913;-21
2022/07/01 13:12:31;;;;;;;;;;;;;;;;;;5036793;28;20007;-22
2022/07/01 13:14:57;;;;;;;;;;;;;;;;;;5037136;28;19920;-21
2022/07/01 13:17:23;;;;;;;;;;;;;;;;;;5036697;28;19917;-22
2022/07/01 13:19:49;;;;;;;;;;;;;;;;;;5035525;28;19913;-22
2022/07/01 13:22:15;;;;;;;;;;;;;;;;;;5036542;28;20260;-21
2022/07/01 13:24:41;;;;;;;;;;;;;;;;;;5036576;28;19991;-22
2022/07/01 13:27:07;;;;;;;;;;;;;;;;;;5036789;28;19996;-22
2022/07/01 13:29:33;;;;;;;;;;;;;;;;;;5036455;28;19917;-22
2022/07/01 13:31:59;;;;;;;;;;;;;;;;;;5036256;28;19913;-22
2022/07/01 13:34:25;;;;;;;;;;;;;;;;;;5036215;28;19913;-25
2022/07/01 13:36:51;;;;;;;;;;;;;;;;;;5035247;28;19979;-22
2022/07/01 13:39:17;;;;;;;;;;;;;;;;;;5036451;28;20248;-22
2022/07/01 13:41:43;;;;;;;;;;;;;;;;;;5036199;28;20340;-22
2022/07/01 13:44:09;;;;;;;;;;;;;;;;;;5036002;28;19924;-22
2022/07/01 13:46:35;;;;;;;;;;;;;;;;;;5035927;28;19920;-25
2022/07/01 13:49:01;;;;;;;;;;;;;;;;;;5035931;28;19913;-23
2022/07/01 13:51:27;;;;;;;;;;;;;;;;;;5036282;28;19909;-23
2022/07/01 13:53:53;;;;;;;;;;;;;;;;;;5035921;28;20039;-26
2022/07/01 13:56:21;;;;;;;;;;;;;;;;;;5035713;28;19920;-22
2022/07/01 13:58:50;;;;;;;;;;;;;;;;;;5036026;28;20018;-22
2022/07/01 14:01:16;;;;;;;;;;;;;;;;;;5035629;28;19971;-22
2022/07/01 14:03:42;;;;;;;;;;;;;;;;;;5035504;28;19917;-22
2022/07/01 14:06:08;;;;;;;;;;;;;;;;;;5035767;28;19913;-22
2022/07/01 14:08:34;;;;;;;;;;;;;;;;;;5035819;28;19913;-22
2022/07/01 14:11:00;;;;;;;;;;;;;;;;;;5035657;28;20244;-22
2022/07/01 14:13:26;;;;;;;;;;;;;;;;;;5035209;28;19971;-25
2022/07/01 14:15:53;;;;;;;;;;;;;;;;;;5035370;28;19909;-21
2022/07/01 14:18:19;;;;;;;;;;;;;;;;;;5035422;28;19913;-22
2022/07/01 14:20:45;;;;;;;;;;;;;;;;;;5035644;28;20071;-22
2022/07/01 14:23:11;;;;;;;;;;;;;;;;;;5035675;28;19913;-23
2022/07/01 14:25:39;;;;;;;;;;;;;;;;;;5035332;28;20256;-22
2022/07/01 14:28:06;;;;;;;;;;;;;;;;;;5035372;28;19909;-22
2022/07/01 14:30:32;;;;;;;;;;;;;;;;;;5034285;28;19913;-23
2022/07/01 14:32:58;;;;;;;;;;;;;;;;;;5035100;28;19917;-25
2022/07/01 14:35:24;;;;;;;;;;;;;;;;;;5035239;28;19917;-21
2022/07/01 14:37:50;;;;;;;;;;;;;;;;;;5035461;28;19959;-22
2022/07/01 14:40:16;;;;;;;;;;;;;;;;;;5035433;28;20004;-22
2022/07/01 14:42:42;;;;;;;;;;;;;;;;;;5034982;28;19916;-23
2022/07/01 14:45:08;;;;;;;;;;;;;;;;;;5035133;28;19913;-21
2022/07/01 14:47:35;;;;;;;;;;;;;;;;;;5035522;28;19979;-22
2022/07/01 14:50:01;;;;;;;;;;;;;;;;;;5035231;28;20352;-22
2022/07/01 14:52:29;;;;;;;;;;;;;;;;;;5034081;28;19924;-23
2022/07/01 14:54:55;;;;;;;;;;;;;;;;;;5034975;28;19913;-22
2022/07/01 14:57:21;;;;;;;;;;;;;;;;;;5034826;28;19917;-23
2022/07/01 14:59:47;;;;;;;;;;;;;;;;;;5035455;28;20291;-22
2022/07/01 15:02:13;;;;;;;;;;;;;;;;;;5034852;28;19910;-22
2022/07/01 15:04:40;;;;;;;;;;;;;;;;;;5035112;28;19917;-22
2022/07/01 15:07:06;;;;;;;;;;;;;;;;;;5035077;28;19909;-23
2022/07/01 15:09:32;;;;;;;;;;;;;;;;;;5035339;28;19979;-23
2022/07/01 15:11:58;;;;;;;;;;;;;;;;;;5034972;28;19920;-23
2022/07/01 15:14:24;;;;;;;;;;;;;;;;;;5035539;28;20000;-22
2022/07/01 15:16:50;;;;;;;;;;;;;;;;;;5035048;28;19913;-22
2022/07/01 15:19:16;;;;;;;;;;;;;;;;;;5035544;28;19944;-22
2022/07/01 15:21:42;;;;;;;;;;;;;;;;;;5035402;28;19910;-22
2022/07/01 15:24:08;;;;;;;;;;;;;;;;;;5036217;28;19975;-22
2022/07/01 15:26:34;;;;;;;;;;;;;;;;;;5034838;28;19913;-23
2022/07/01 15:29:00;;;;;;;;;;;;;;;;;;5035261;28;20011;-23
2022/07/01 15:31:26;;;;;;;;;;;;;;;;;;5034690;28;19906;-23
2022/07/01 15:33:53;;;;;;;;;;;;;;;;;;5034503;28;19917;-22
2022/07/01 15:36:19;;;;;;;;;;;;;;;;;;5034962;28;19909;-23
2022/07/01 15:38:45;;;;;;;;;;;;;;;;;;5034516;28;19998;-23
2022/07/01 15:41:11;;;;;;;;;;;;;;;;;;5033443;28;19995;-23
2022/07/01 15:43:37;;;;;;;;;;;;;;;;;;5034430;28;20343;-23
2022/07/01 15:46:03;;;;;;;;;;;;;;;;;;5034780;28;20024;-22
2022/07/01 15:48:29;;;;;;;;;;;;;;;;;;5034904;28;19909;-24
2022/07/01 15:50:55;;;;;;;;;;;;;;;;;;5034492;28;19913;-22
2022/07/01 15:53:21;;;;;;;;;;;;;;;;;;5034288;28;19917;-22
2022/07/01 15:55:47;;;;;;;;;;;;;;;;;;5034843;28;19953;-23
2022/07/01 15:58:13;;;;;;;;;;;;;;;;;;5036784;28;20251;-22
2022/07/01 16:00:39;;;;;;;;;;;;;;;;;;5037210;28;19948;-22
2022/07/01 16:03:06;;;;;;;;;;;;;;;;;;5037771;28;19924;-24
2022/07/01 16:05:33;;;;;;;;;;;;;;;;;;5037955;28;20006;-22
2022/07/01 16:07:59;;;;;;;;;;;;;;;;;;5038009;28;19909;-23
2022/07/01 16:10:25;;;;;;;;;;;;;;;;;;5037984;28;19924;-22
2022/07/01 16:12:51;;;;;;;;;;;;;;;;;;5037789;28;19917;-22
2022/07/01 16:15:17;;;;;;;;;;;;;;;;;;5037883;28;19913;-22
2022/07/01 16:17:43;;;;;;;;;;;;;;;;;;5037736;28;19956;-24
2022/07/01 16:20:09;;;;;;;;;;;;;;;;;;5036648;28;19920;-22
2022/07/01 16:22:35;;;;;;;;;;;;;;;;;;5037494;28;19920;-22
2022/07/01 16:25:01;;;;;;;;;;;;;;;;;;5037786;28;19983;-22
2022/07/01 16:27:27;;;;;;;;;;;;;;;;;;5038571;28;20312;-22
2022/07/01 16:29:54;;;;;;;;;;;;;;;;;;5036858;28;20248;-21
2022/07/01 16:32:20;;;;;;;;;;;;;;;;;;5037595;28;19913;-21
2022/07/01 16:34:46;;;;;;;;;;;;;;;;;;5036562;28;20004;-22
2022/07/01 16:37:12;;;;;;;;;;;;;;;;;;5036470;28;20255;-21
2022/07/01 16:39:37;;;;;;;;;;;;;;;;;;5037565;28;19999;-23
2022/07/01 16:42:03;;;;;;;;;;;;;;;;;;5037336;28;19920;-21
2022/07/01 16:44:30;;;;;;;;;;;;;;;;;;5036360;28;20002;-22
2022/07/01 16:46:56;;;;;;;;;;;;;;;;;;5037300;28;20028;-22
2022/07/01 16:49:22;;;;;;;;;;;;;;;;;;5037080;28;19957;-21
2022/07/01 16:51:49;;;;;;;;;;;;;;;;;;5037004;28;19909;-23
2022/07/01 16:54:15;;;;;;;;;;;;;;;;;;5037018;28;19971;-21